sensor_id;sensor_type;location;lat;lon;timestamp;pressure;altitude;pressure_sealevel;temperature;humidity
14204;BME280;7185;51.854;6.622;2022-08-18T00:02:24;100946.28;;;20.65;100.00
14204;BME280;7185;51.854;6.622;2022-08-18T00:04:57;100951.03;;;20.60;100.00
14204;BME280;7185;51.854;6.622;2022-08-18T00:07:31;100953.09;;;20.71;100.00
14204;BME280;7185;51.854;6.622;2022-08-18T00:10:04;100955.91;;;20.68;100.00
14204;BME280;7185;51.854;6.622;2022-08-18T00:12:37;100952.56;;;20.64;100.00
14204;BME280;7185;51.854;6.622;2022-08-18T00:15:14;100947.72;;;20.73;100.00
14204;BME280;7185;51.854;6.622;2022-08-18T00:17:46;100950.09;;;20.61;100.00
14204;BME280;7185;51.854;6.622;2022-08-18T00:20:20;100948.03;;;20.66;100.00
14204;BME280;7185;51.854;6.622;2022-08-18T00:22:53;100943.22;;;20.73;100.00
14204;BME280;7185;51.854;6.622;2022-08-18T00:25:25;100935.63;;;20.65;100.00
14204;BME280;7185;51.854;6.622;2022-08-18T00:27:57;100935.09;;;20.59;100.00
14204;BME280;7185;51.854;6.622;2022-08-18T00:30:30;100926.50;;;20.69;100.00
14204;BME280;7185;51.854;6.622;2022-08-18T00:33:02;100933.56;;;20.70;100.00
14204;BME280;7185;51.854;6.622;2022-08-18T00:35:36;100941.09;;;20.80;100.00
14204;BME280;7185;51.854;6.622;2022-08-18T00:38:08;100938.59;;;20.77;100.00
14204;BME280;7185;51.854;6.622;2022-08-18T00:40:49;100944.56;;;20.64;100.00
14204;BME280;7185;51.854;6.622;2022-08-18T00:43:26;100956.69;;;20.70;100.00
14204;BME280;7185;51.854;6.622;2022-08-18T00:46:06;100950.91;;;20.46;100.00
14204;BME280;7185;51.854;6.622;2022-08-18T00:48:38;100948.00;;;20.50;100.00
14204;BME280;7185;51.854;6.622;2022-08-18T00:51:21;100957.53;;;20.38;100.00
14204;BME280;7185;51.854;6.622;2022-08-18T00:54:00;100962.78;;;20.56;100.00
14204;BME280;7185;51.854;6.622;2022-08-18T00:56:36;100966.56;;;20.52;100.00
14204;BME280;7185;51.854;6.622;2022-08-18T00:59:14;100982.22;;;20.58;100.00
14204;BME280;7185;51.854;6.622;2022-08-18T01:01:49;100981.19;;;20.61;100.00
14204;BME280;7185;51.854;6.622;2022-08-18T01:04:25;100983.38;;;20.52;100.00
14204;BME280;7185;51.854;6.622;2022-08-18T01:07:01;100979.53;;;20.58;100.00
14204;BME280;7185;51.854;6.622;2022-08-18T01:09:35;100982.16;;;20.76;100.00
14204;BME280;7185;51.854;6.622;2022-08-18T01:12:07;100980.38;;;20.76;100.00
14204;BME280;7185;51.854;6.622;2022-08-18T01:14:40;100976.81;;;20.76;100.00
14204;BME280;7185;51.854;6.622;2022-08-18T01:17:13;100986.09;;;20.68;100.00
14204;BME280;7185;51.854;6.622;2022-08-18T01:20:03;100984.44;;;20.66;100.00
14204;BME280;7185;51.854;6.622;2022-08-18T01:22:59;100981.41;;;20.74;100.00
14204;BME280;7185;51.854;6.622;2022-08-18T01:25:36;100986.38;;;20.80;100.00
14204;BME280;7185;51.854;6.622;2022-08-18T01:28:26;100991.59;;;20.65;100.00
14204;BME280;7185;51.854;6.622;2022-08-18T01:30:59;100982.88;;;20.46;100.00
14204;BME280;7185;51.854;6.622;2022-08-18T01:33:33;100975.06;;;20.59;100.00
14204;BME280;7185;51.854;6.622;2022-08-18T01:36:11;100970.94;;;20.53;100.00
14204;BME280;7185;51.854;6.622;2022-08-18T01:38:47;100967.16;;;20.57;100.00
14204;BME280;7185;51.854;6.622;2022-08-18T01:41:20;100965.19;;;20.61;100.00
14204;BME280;7185;51.854;6.622;2022-08-18T01:43:52;100969.66;;;20.60;100.00
14204;BME280;7185;51.854;6.622;2022-08-18T01:46:24;100980.38;;;20.43;100.00
14204;BME280;7185;51.854;6.622;2022-08-18T01:48:57;100973.94;;;20.47;100.00
14204;BME280;7185;51.854;6.622;2022-08-18T01:51:31;100974.66;;;20.50;100.00
14204;BME280;7185;51.854;6.622;2022-08-18T01:54:05;100980.31;;;20.60;100.00
14204;BME280;7185;51.854;6.622;2022-08-18T01:56:37;100977.56;;;20.62;100.00
14204;BME280;7185;51.854;6.622;2022-08-18T01:59:10;100972.03;;;20.49;100.00
14204;BME280;7185;51.854;6.622;2022-08-18T02:01:45;100975.16;;;20.57;100.00
14204;BME280;7185;51.854;6.622;2022-08-18T02:04:17;100973.19;;;20.61;100.00
14204;BME280;7185;51.854;6.622;2022-08-18T02:06:48;100971.66;;;20.57;100.00
14204;BME280;7185;51.854;6.622;2022-08-18T02:09:22;100973.63;;;20.53;100.00
14204;BME280;7185;51.854;6.622;2022-08-18T02:11:53;100972.91;;;20.49;100.00
14204;BME280;7185;51.854;6.622;2022-08-18T02:14:25;100966.56;;;20.52;100.00
14204;BME280;7185;51.854;6.622;2022-08-18T02:16:57;100966.75;;;20.65;100.00
14204;BME280;7185;51.854;6.622;2022-08-18T02:19:32;100961.44;;;20.65;100.00
14204;BME280;7185;51.854;6.622;2022-08-18T02:22:04;100970.50;;;20.45;100.00
14204;BME280;7185;51.854;6.622;2022-08-18T02:24:38;100966.09;;;20.44;100.00
14204;BME280;7185;51.854;6.622;2022-08-18T02:27:11;100970.50;;;20.45;100.00
14204;BME280;7185;51.854;6.622;2022-08-18T02:29:43;100962.66;;;20.42;100.00
14204;BME280;7185;51.854;6.622;2022-08-18T02:32:15;100960.78;;;20.44;100.00
14204;BME280;7185;51.854;6.622;2022-08-18T02:34:47;100958.28;;;20.41;100.00
14204;BME280;7185;51.854;6.622;2022-08-18T02:37:19;100959.16;;;20.57;100.00
14204;BME280;7185;51.854;6.622;2022-08-18T02:39:52;100970.75;;;20.56;100.00
14204;BME280;7185;51.854;6.622;2022-08-18T02:42:24;100963.28;;;20.47;100.00
14204;BME280;7185;51.854;6.622;2022-08-18T02:44:55;100963.44;;;20.44;100.00
14204;BME280;7185;51.854;6.622;2022-08-18T02:47:29;100962.06;;;20.36;100.00
14204;BME280;7185;51.854;6.622;2022-08-18T02:50:02;100964.63;;;20.38;100.00
14204;BME280;7185;51.854;6.622;2022-08-18T02:52:34;100963.59;;;20.41;100.00
14204;BME280;7185;51.854;6.622;2022-08-18T02:55:08;100958.72;;;20.49;100.00
14204;BME280;7185;51.854;6.622;2022-08-18T02:57:41;100972.56;;;20.40;100.00
14204;BME280;7185;51.854;6.622;2022-08-18T03:00:16;100980.69;;;20.36;100.00
14204;BME280;7185;51.854;6.622;2022-08-18T03:02:49;100980.84;;;20.33;100.00
14204;BME280;7185;51.854;6.622;2022-08-18T03:05:22;100985.59;;;20.44;100.00
14204;BME280;7185;51.854;6.622;2022-08-18T03:07:54;100986.63;;;20.42;100.00
14204;BME280;7185;51.854;6.622;2022-08-18T03:10:27;100985.88;;;20.40;100.00
14204;BME280;7185;51.854;6.622;2022-08-18T03:12:58;100985.19;;;20.36;100.00
14204;BME280;7185;51.854;6.622;2022-08-18T03:15:30;100979.78;;;20.20;100.00
14204;BME280;7185;51.854;6.622;2022-08-18T03:18:02;100981.03;;;20.13;100.00
14204;BME280;7185;51.854;6.622;2022-08-18T03:20:34;100981.69;;;20.18;100.00
14204;BME280;7185;51.854;6.622;2022-08-18T03:23:06;100986.69;;;20.24;100.00
14204;BME280;7185;51.854;6.622;2022-08-18T03:25:44;100983.84;;;20.27;100.00
14204;BME280;7185;51.854;6.622;2022-08-18T03:28:16;100975.09;;;20.25;100.00
14204;BME280;7185;51.854;6.622;2022-08-18T03:30:48;100966.44;;;20.37;100.00
14204;BME280;7185;51.854;6.622;2022-08-18T03:33:19;100966.91;;;20.46;100.00
14204;BME280;7185;51.854;6.622;2022-08-18T03:35:51;100968.78;;;20.44;100.00
14204;BME280;7185;51.854;6.622;2022-08-18T03:38:23;100961.22;;;20.52;100.00
14204;BME280;7185;51.854;6.622;2022-08-18T03:40:56;100961.06;;;20.55;100.00
14204;BME280;7185;51.854;6.622;2022-08-18T03:43:27;100965.00;;;20.48;100.00
14204;BME280;7185;51.854;6.622;2022-08-18T03:46:01;100966.19;;;20.42;100.00
14204;BME280;7185;51.854;6.622;2022-08-18T03:48:32;100962.97;;;20.53;100.00
14204;BME280;7185;51.854;6.622;2022-08-18T03:51:05;100974.88;;;20.46;100.00
14204;BME280;7185;51.854;6.622;2022-08-18T03:53:38;100971.34;;;20.45;100.00
14204;BME280;7185;51.854;6.622;2022-08-18T03:56:13;100982.09;;;20.44;100.00
14204;BME280;7185;51.854;6.622;2022-08-18T03:58:47;100972.97;;;20.48;100.00
14204;BME280;7185;51.854;6.622;2022-08-18T04:01:21;100971.59;;;20.41;100.00
14204;BME280;7185;51.854;6.622;2022-08-18T04:03:56;100975.69;;;20.30;100.00
14204;BME280;7185;51.854;6.622;2022-08-18T04:06:31;100976.63;;;20.29;100.00
14204;BME280;7185;51.854;6.622;2022-08-18T04:09:05;100984.38;;;20.34;100.00
14204;BME280;7185;51.854;6.622;2022-08-18T04:11:39;100974.75;;;20.31;100.00
14204;BME280;7185;51.854;6.622;2022-08-18T04:14:14;100973.03;;;20.30;100.00
14204;BME280;7185;51.854;6.622;2022-08-18T04:16:47;100976.81;;;20.26;100.00
14204;BME280;7185;51.854;6.622;2022-08-18T04:19:18;100976.81;;;20.26;100.00
14204;BME280;7185;51.854;6.622;2022-08-18T04:21:51;100974.22;;;20.25;100.00
14204;BME280;7185;51.854;6.622;2022-08-18T04:24:24;100967.88;;;20.27;100.00
14204;BME280;7185;51.854;6.622;2022-08-18T04:26:58;100965.84;;;20.32;100.00
14204;BME280;7185;51.854;6.622;2022-08-18T04:29:31;100962.53;;;20.27;100.00
14204;BME280;7185;51.854;6.622;2022-08-18T04:32:03;100967.88;;;20.27;100.00
14204;BME280;7185;51.854;6.622;2022-08-18T04:34:34;100955.94;;;20.34;100.00
14204;BME280;7185;51.854;6.622;2022-08-18T04:37:07;100958.78;;;20.31;100.00
14204;BME280;7185;51.854;6.622;2022-08-18T04:39:39;100955.78;;;20.37;100.00
14204;BME280;7185;51.854;6.622;2022-08-18T04:42:12;100971.88;;;20.36;100.00
14204;BME280;7185;51.854;6.622;2022-08-18T04:44:44;100980.44;;;20.41;100.00
14204;BME280;7185;51.854;6.622;2022-08-18T04:47:16;100995.50;;;20.42;100.00
14204;BME280;7185;51.854;6.622;2022-08-18T04:49:47;100995.75;;;20.37;100.00
14204;BME280;7185;51.854;6.622;2022-08-18T04:52:19;101003.63;;;20.39;100.00
14204;BME280;7185;51.854;6.622;2022-08-18T04:55:09;101005.81;;;20.48;100.00
14204;BME280;7185;51.854;6.622;2022-08-18T04:57:42;100997.75;;;20.50;100.00
14204;BME280;7185;51.854;6.622;2022-08-18T05:00:14;100997.97;;;20.45;100.00
14204;BME280;7185;51.854;6.622;2022-08-18T05:02:46;100994.22;;;20.49;100.00
14204;BME280;7185;51.854;6.622;2022-08-18T05:05:18;100993.53;;;20.46;100.00
14204;BME280;7185;51.854;6.622;2022-08-18T05:07:50;101007.00;;;20.43;100.00
14204;BME280;7185;51.854;6.622;2022-08-18T05:10:21;101006.91;;;20.44;100.00
14204;BME280;7185;51.854;6.622;2022-08-18T05:12:54;101009.50;;;20.46;100.00
14204;BME280;7185;51.854;6.622;2022-08-18T05:15:26;101016.72;;;20.44;100.00
14204;BME280;7185;51.854;6.622;2022-08-18T05:17:58;101022.03;;;20.44;100.00
14204;BME280;7185;51.854;6.622;2022-08-18T05:20:30;101020.53;;;20.56;100.00
14204;BME280;7185;51.854;6.622;2022-08-18T05:23:02;101023.97;;;20.58;100.00
14204;BME280;7185;51.854;6.622;2022-08-18T05:25:33;101031.00;;;20.59;100.00
14204;BME280;7185;51.854;6.622;2022-08-18T05:28:10;101027.50;;;20.58;100.00
14204;BME280;7185;51.854;6.622;2022-08-18T05:30:42;101035.47;;;20.58;100.00
14204;BME280;7185;51.854;6.622;2022-08-18T05:33:14;101030.00;;;20.61;100.00
14204;BME280;7185;51.854;6.622;2022-08-18T05:35:49;101024.81;;;20.58;100.00
14204;BME280;7185;51.854;6.622;2022-08-18T05:38:29;101015.53;;;20.49;100.00
14204;BME280;7185;51.854;6.622;2022-08-18T05:41:08;101024.56;;;20.47;100.00
14204;BME280;7185;51.854;6.622;2022-08-18T05:43:44;101022.03;;;20.44;100.00
14204;BME280;7185;51.854;6.622;2022-08-18T05:46:21;101025.31;;;20.49;100.00
14204;BME280;7185;51.854;6.622;2022-08-18T05:48:56;101030.97;;;20.43;100.00
14204;BME280;7185;51.854;6.622;2022-08-18T05:51:31;101029.09;;;20.45;100.00
14204;BME280;7185;51.854;6.622;2022-08-18T05:54:06;101029.09;;;20.45;100.00
14204;BME280;7185;51.854;6.622;2022-08-18T05:56:57;101032.97;;;20.55;100.00
14204;BME280;7185;51.854;6.622;2022-08-18T05:59:35;101024.59;;;20.45;100.00
14204;BME280;7185;51.854;6.622;2022-08-18T06:02:25;101029.59;;;20.51;100.00
14204;BME280;7185;51.854;6.622;2022-08-18T06:05:02;101031.28;;;20.36;100.00
14204;BME280;7185;51.854;6.622;2022-08-18T06:07:41;101027.03;;;20.50;100.00
14204;BME280;7185;51.854;6.622;2022-08-18T06:10:16;101017.56;;;20.44;100.00
14204;BME280;7185;51.854;6.622;2022-08-18T06:12:50;101025.63;;;20.43;100.00
14204;BME280;7185;51.854;6.622;2022-08-18T06:15:29;101027.50;;;20.41;100.00
14204;BME280;7185;51.854;6.622;2022-08-18T06:18:21;101030.81;;;20.46;100.00
14204;BME280;7185;51.854;6.622;2022-08-18T06:21:10;101033.88;;;20.38;100.00
14204;BME280;7185;51.854;6.622;2022-08-18T06:23:50;101038.34;;;20.37;100.00
14204;BME280;7185;51.854;6.622;2022-08-18T06:26:31;101037.22;;;20.42;100.00
14204;BME280;7185;51.854;6.622;2022-08-18T06:29:16;101049.91;;;20.54;100.00
14204;BME280;7185;51.854;6.622;2022-08-18T06:31:58;101046.28;;;20.55;100.00
14204;BME280;7185;51.854;6.622;2022-08-18T06:34:39;101056.50;;;20.47;100.00
14204;BME280;7185;51.854;6.622;2022-08-18T06:37:20;101061.91;;;20.45;100.00
14204;BME280;7185;51.854;6.622;2022-08-18T06:39:55;101069.31;;;20.56;100.00
14204;BME280;7185;51.854;6.622;2022-08-18T06:42:27;101069.50;;;20.53;100.00
14204;BME280;7185;51.854;6.622;2022-08-18T06:45:02;101069.50;;;20.53;100.00
14204;BME280;7185;51.854;6.622;2022-08-18T06:47:44;101073.94;;;20.52;100.00
14204;BME280;7185;51.854;6.622;2022-08-18T06:50:25;101079.03;;;20.57;100.00
14204;BME280;7185;51.854;6.622;2022-08-18T06:52:59;101084.75;;;20.67;100.00
14204;BME280;7185;51.854;6.622;2022-08-18T06:55:33;101080.09;;;20.72;100.00
14204;BME280;7185;51.854;6.622;2022-08-18T06:58:20;101084.59;;;20.52;100.00
14204;BME280;7185;51.854;6.622;2022-08-18T07:01:00;101087.03;;;20.57;100.00
14204;BME280;7185;51.854;6.622;2022-08-18T07:03:42;101082.59;;;20.58;100.00
14204;BME280;7185;51.854;6.622;2022-08-18T07:06:30;101091.19;;;20.63;100.00
14204;BME280;7185;51.854;6.622;2022-08-18T07:09:17;101086.56;;;20.66;100.00
14204;BME280;7185;51.854;6.622;2022-08-18T07:12:02;101085.22;;;20.75;100.00
14204;BME280;7185;51.854;6.622;2022-08-18T07:14:43;101088.59;;;20.79;100.00
14204;BME280;7185;51.854;6.622;2022-08-18T07:17:20;101097.44;;;20.79;100.00
14204;BME280;7185;51.854;6.622;2022-08-18T07:20:04;101099.53;;;20.90;100.00
14204;BME280;7185;51.854;6.622;2022-08-18T07:22:53;101098.91;;;20.85;100.00
14204;BME280;7185;51.854;6.622;2022-08-18T07:25:28;101103.16;;;20.89;100.00
14204;BME280;7185;51.854;6.622;2022-08-18T07:28:00;101096.94;;;20.89;100.00
14204;BME280;7185;51.854;6.622;2022-08-18T07:30:34;101095.78;;;20.94;100.00
14204;BME280;7185;51.854;6.622;2022-08-18T07:33:12;101099.13;;;20.98;100.00
14204;BME280;7185;51.854;6.622;2022-08-18T07:35:53;101093.38;;;21.06;100.00
14204;BME280;7185;51.854;6.622;2022-08-18T07:38:31;101092.63;;;21.04;100.00
14204;BME280;7185;51.854;6.622;2022-08-18T07:41:12;101093.72;;;20.99;100.00
14204;BME280;7185;51.854;6.622;2022-08-18T07:43:55;101096.13;;;21.04;100.00
14204;BME280;7185;51.854;6.622;2022-08-18T07:46:38;101095.88;;;21.09;100.00
14204;BME280;7185;51.854;6.622;2022-08-18T07:49:17;101099.22;;;20.96;100.00
14204;BME280;7185;51.854;6.622;2022-08-18T07:51:56;101098.63;;;21.07;100.00
14204;BME280;7185;51.854;6.622;2022-08-18T07:54:43;101096.75;;;21.25;100.00
14204;BME280;7185;51.854;6.622;2022-08-18T07:57:27;101105.88;;;21.21;100.00
14204;BME280;7185;51.854;6.622;2022-08-18T08:00:10;101094.59;;;21.16;100.00
14204;BME280;7185;51.854;6.622;2022-08-18T08:02:51;101099.00;;;21.33;100.00
14204;BME280;7185;51.854;6.622;2022-08-18T08:05:37;101104.16;;;21.36;100.00
14204;BME280;7185;51.854;6.622;2022-08-18T08:08:19;101095.19;;;21.21;100.00
14204;BME280;7185;51.854;6.622;2022-08-18T08:11:00;101093.22;;;21.41;100.00
14204;BME280;7185;51.854;6.622;2022-08-18T08:13:45;101090.66;;;21.39;100.00
14204;BME280;7185;51.854;6.622;2022-08-18T08:16:27;101089.81;;;21.39;100.00
14204;BME280;7185;51.854;6.622;2022-08-18T08:19:15;101086.59;;;21.48;100.00
14204;BME280;7185;51.854;6.622;2022-08-18T08:22:03;101095.50;;;21.64;100.00
14204;BME280;7185;51.854;6.622;2022-08-18T08:24:41;101094.13;;;21.57;100.00
14204;BME280;7185;51.854;6.622;2022-08-18T08:27:20;101097.38;;;21.46;100.00
14204;BME280;7185;51.854;6.622;2022-08-18T08:29:59;101093.59;;;21.67;100.00
14204;BME280;7185;51.854;6.622;2022-08-18T08:32:36;101093.75;;;21.47;100.00
14204;BME280;7185;51.854;6.622;2022-08-18T08:35:12;101095.72;;;21.44;100.00
14204;BME280;7185;51.854;6.622;2022-08-18T08:37:51;101101.84;;;21.46;100.00
14204;BME280;7185;51.854;6.622;2022-08-18T08:40:29;101095.97;;;21.55;100.00
14204;BME280;7185;51.854;6.622;2022-08-18T08:43:07;101097.97;;;21.68;100.00
14204;BME280;7185;51.854;6.622;2022-08-18T08:45:44;101095.19;;;21.85;100.00
14204;BME280;7185;51.854;6.622;2022-08-18T08:48:21;101094.06;;;22.05;100.00
14204;BME280;7185;51.854;6.622;2022-08-18T08:50:56;101100.13;;;22.23;100.00
14204;BME280;7185;51.854;6.622;2022-08-18T08:53:33;101102.59;;;22.26;100.00
14204;BME280;7185;51.854;6.622;2022-08-18T08:56:08;101098.97;;;22.27;100.00
14204;BME280;7185;51.854;6.622;2022-08-18T08:58:44;101102.78;;;22.38;100.00
14204;BME280;7185;51.854;6.622;2022-08-18T09:01:23;101108.09;;;22.39;100.00
14204;BME280;7185;51.854;6.622;2022-08-18T09:04:02;101105.22;;;22.42;100.00
14204;BME280;7185;51.854;6.622;2022-08-18T09:06:43;101110.59;;;22.57;100.00
14204;BME280;7185;51.854;6.622;2022-08-18T09:09:40;101110.41;;;22.60;100.00
14204;BME280;7185;51.854;6.622;2022-08-18T09:12:30;101116.81;;;22.57;100.00
14204;BME280;7185;51.854;6.622;2022-08-18T09:15:28;101111.94;;;22.64;100.00
14204;BME280;7185;51.854;6.622;2022-08-18T09:18:27;101116.84;;;22.72;100.00
14204;BME280;7185;51.854;6.622;2022-08-18T09:21:15;101126.38;;;22.76;100.00
14204;BME280;7185;51.854;6.622;2022-08-18T09:23:51;101122.66;;;22.93;100.00
14204;BME280;7185;51.854;6.622;2022-08-18T09:26:39;101121.03;;;23.05;100.00
14204;BME280;7185;51.854;6.622;2022-08-18T09:29:17;101116.66;;;23.18;100.00
14204;BME280;7185;51.854;6.622;2022-08-18T09:32:32;101113.09;;;23.03;100.00
14204;BME280;7185;51.854;6.622;2022-08-18T09:35:20;101120.25;;;23.03;100.00
14204;BME280;7185;51.854;6.622;2022-08-18T09:37:58;101121.59;;;22.96;100.00
14204;BME280;7185;51.854;6.622;2022-08-18T09:40:57;101135.16;;;23.07;100.00
14204;BME280;7185;51.854;6.622;2022-08-18T09:43:55;101128.09;;;23.06;100.00
14204;BME280;7185;51.854;6.622;2022-08-18T09:46:53;101131.91;;;23.16;100.00
14204;BME280;7185;51.854;6.622;2022-08-18T09:49:41;101123.88;;;23.16;100.00
14204;BME280;7185;51.854;6.622;2022-08-18T09:55:39;101107.69;;;23.19;100.00
14204;BME280;7185;51.854;6.622;2022-08-18T09:58:13;101103.25;;;23.75;100.00
14204;BME280;7185;51.854;6.622;2022-08-18T10:01:21;101110.50;;;24.53;100.00
14204;BME280;7185;51.854;6.622;2022-08-18T10:04:27;101112.69;;;25.00;100.00
14204;BME280;7185;51.854;6.622;2022-08-18T10:07:16;101122.06;;;25.31;100.00
14204;BME280;7185;51.854;6.622;2022-08-18T10:09:58;101119.03;;;25.49;100.00
14204;BME280;7185;51.854;6.622;2022-08-18T10:12:54;101109.09;;;25.62;100.00
14204;BME280;7185;51.854;6.622;2022-08-18T10:15:39;101113.47;;;25.39;100.00
14204;BME280;7185;51.854;6.622;2022-08-18T10:18:29;101111.69;;;25.64;100.00
14204;BME280;7185;51.854;6.622;2022-08-18T10:21:10;101106.22;;;25.76;100.00
14204;BME280;7185;51.854;6.622;2022-08-18T10:23:53;101105.22;;;25.66;100.00
14204;BME280;7185;51.854;6.622;2022-08-18T10:29:53;101101.16;;;25.60;100.00
14204;BME280;7185;51.854;6.622;2022-08-18T10:32:44;101104.13;;;25.44;100.00
14204;BME280;7185;51.854;6.622;2022-08-18T10:38:43;101095.09;;;25.94;100.00
14204;BME280;7185;51.854;6.622;2022-08-18T10:41:25;101088.25;;;26.14;100.00
14204;BME280;7185;51.854;6.622;2022-08-18T10:44:01;101095.09;;;25.94;100.00
14204;BME280;7185;51.854;6.622;2022-08-18T10:46:40;101091.16;;;25.87;100.00
14204;BME280;7185;51.854;6.622;2022-08-18T10:49:20;101096.00;;;26.41;100.00
14204;BME280;7185;51.854;6.622;2022-08-18T10:52:45;101099.47;;;26.89;100.00
14204;BME280;7185;51.854;6.622;2022-08-18T10:55:42;101089.28;;;27.49;100.00
14204;BME280;7185;51.854;6.622;2022-08-18T10:58:36;101096.50;;;27.49;100.00
14204;BME280;7185;51.854;6.622;2022-08-18T11:03:59;101090.81;;;28.07;62.46
14204;BME280;7185;51.854;6.622;2022-08-18T11:06:38;101094.34;;;27.43;63.28
14204;BME280;7185;51.854;6.622;2022-08-18T11:09:11;101096.78;;;27.23;63.32
14204;BME280;7185;51.854;6.622;2022-08-18T11:11:44;101089.94;;;26.73;64.49
14204;BME280;7185;51.854;6.622;2022-08-18T11:17:26;101089.66;;;26.54;65.71
14204;BME280;7185;51.854;6.622;2022-08-18T11:20:05;101085.81;;;26.81;65.26
14204;BME280;7185;51.854;6.622;2022-08-18T11:22:49;101080.53;;;27.13;64.76
14204;BME280;7185;51.854;6.622;2022-08-18T11:25:24;101085.00;;;27.47;65.25
14204;BME280;7185;51.854;6.622;2022-08-18T11:27:59;101076.41;;;27.86;63.40
14204;BME280;7185;51.854;6.622;2022-08-18T11:30:34;101068.34;;;27.53;63.22
14204;BME280;7185;51.854;6.622;2022-08-18T11:33:06;101072.06;;;28.06;61.06
14204;BME280;7185;51.854;6.622;2022-08-18T11:35:45;101071.78;;;28.09;60.73
14204;BME280;7185;51.854;6.622;2022-08-18T11:38:17;101058.34;;;28.30;60.20
14204;BME280;7185;51.854;6.622;2022-08-18T11:40:51;101065.50;;;28.41;59.66
14204;BME280;7185;51.854;6.622;2022-08-18T11:43:29;101059.94;;;28.42;59.18
14204;BME280;7185;51.854;6.622;2022-08-18T11:46:12;101050.13;;;28.93;60.00
14204;BME280;7185;51.854;6.622;2022-08-18T11:48:47;101043.72;;;29.65;57.82
14204;BME280;7185;51.854;6.622;2022-08-18T11:51:21;101041.16;;;29.73;55.16
14204;BME280;7185;51.854;6.622;2022-08-18T11:53:56;101036.63;;;30.03;54.49
14204;BME280;7185;51.854;6.622;2022-08-18T11:56:30;101037.75;;;30.00;55.06
14204;BME280;7185;51.854;6.622;2022-08-18T11:59:05;101034.28;;;30.28;54.78
14204;BME280;7185;51.854;6.622;2022-08-18T12:01:39;101027.31;;;31.00;52.45
14204;BME280;7185;51.854;6.622;2022-08-18T12:04:24;101015.88;;;31.97;50.53
14204;BME280;7185;51.854;6.622;2022-08-18T12:07:02;101012.06;;;32.34;46.51
14204;BME280;7185;51.854;6.622;2022-08-18T12:09:38;101008.50;;;32.07;48.18
14204;BME280;7185;51.854;6.622;2022-08-18T12:12:16;101003.13;;;31.89;47.97
14204;BME280;7185;51.854;6.622;2022-08-18T12:14:53;101007.66;;;32.68;47.05
14204;BME280;7185;51.854;6.622;2022-08-18T12:17:27;101008.88;;;32.73;46.19
14204;BME280;7185;51.854;6.622;2022-08-18T12:19:59;101016.84;;;32.40;46.53
14204;BME280;7185;51.854;6.622;2022-08-18T12:22:31;101018.44;;;32.25;47.10
14204;BME280;7185;51.854;6.622;2022-08-18T12:25:06;100999.72;;;31.33;50.15
14204;BME280;7185;51.854;6.622;2022-08-18T12:27:39;100997.44;;;30.92;51.43
14204;BME280;7185;51.854;6.622;2022-08-18T12:30:13;100998.50;;;31.63;50.74
14204;BME280;7185;51.854;6.622;2022-08-18T12:32:45;100996.94;;;32.58;47.34
14204;BME280;7185;51.854;6.622;2022-08-18T12:35:17;100989.38;;;33.62;45.47
14204;BME280;7185;51.854;6.622;2022-08-18T12:37:49;100985.66;;;33.30;43.12
14204;BME280;7185;51.854;6.622;2022-08-18T12:40:20;100985.59;;;33.14;43.83
14204;BME280;7185;51.854;6.622;2022-08-18T12:42:52;100974.44;;;33.42;43.55
14204;BME280;7185;51.854;6.622;2022-08-18T12:45:26;100969.66;;;33.60;42.77
14204;BME280;7185;51.854;6.622;2022-08-18T12:48:00;100980.03;;;33.81;43.05
14204;BME280;7185;51.854;6.622;2022-08-18T12:50:31;100975.66;;;34.37;41.17
14204;BME280;7185;51.854;6.622;2022-08-18T12:53:04;100985.19;;;35.12;40.71
14204;BME280;7185;51.854;6.622;2022-08-18T12:55:39;100979.00;;;35.65;36.89
14204;BME280;7185;51.854;6.622;2022-08-18T12:58:11;100988.81;;;35.04;38.59
14204;BME280;7185;51.854;6.622;2022-08-18T13:00:44;100981.88;;;34.06;39.01
14204;BME280;7185;51.854;6.622;2022-08-18T13:03:17;100992.38;;;33.18;40.68
14204;BME280;7185;51.854;6.622;2022-08-18T13:05:49;101004.59;;;32.28;41.92
14204;BME280;7185;51.854;6.622;2022-08-18T13:08:22;101009.59;;;32.84;41.93
14204;BME280;7185;51.854;6.622;2022-08-18T13:10:54;100998.53;;;33.45;39.48
14204;BME280;7185;51.854;6.622;2022-08-18T13:13:27;101006.34;;;33.40;39.98
14204;BME280;7185;51.854;6.622;2022-08-18T13:16:02;101011.88;;;32.97;40.07
14204;BME280;7185;51.854;6.622;2022-08-18T13:18:34;101012.06;;;33.12;41.51
14204;BME280;7185;51.854;6.622;2022-08-18T13:21:07;101020.78;;;32.20;40.70
14204;BME280;7185;51.854;6.622;2022-08-18T13:23:39;101025.34;;;31.93;42.46
14204;BME280;7185;51.854;6.622;2022-08-18T13:26:16;101026.34;;;31.20;45.62
14204;BME280;7185;51.854;6.622;2022-08-18T13:28:51;101027.50;;;30.04;45.96
14204;BME280;7185;51.854;6.622;2022-08-18T13:31:25;101033.91;;;29.44;47.54
14204;BME280;7185;51.854;6.622;2022-08-18T13:33:58;101029.56;;;29.02;48.37
14204;BME280;7185;51.854;6.622;2022-08-18T13:36:30;101017.06;;;29.11;50.24
14204;BME280;7185;51.854;6.622;2022-08-18T13:39:15;101006.13;;;29.22;50.52
14204;BME280;7185;51.854;6.622;2022-08-18T13:41:49;101006.00;;;29.14;51.53
14204;BME280;7185;51.854;6.622;2022-08-18T13:44:22;101008.13;;;29.20;50.63
14204;BME280;7185;51.854;6.622;2022-08-18T13:46:56;101019.47;;;29.04;51.77
14204;BME280;7185;51.854;6.622;2022-08-18T13:49:28;101008.22;;;28.89;50.73
14204;BME280;7185;51.854;6.622;2022-08-18T13:51:59;101012.63;;;28.90;52.51
14204;BME280;7185;51.854;6.622;2022-08-18T13:54:32;101007.38;;;28.58;51.82
14204;BME280;7185;51.854;6.622;2022-08-18T13:57:05;101005.63;;;28.47;51.74
14204;BME280;7185;51.854;6.622;2022-08-18T13:59:37;101001.38;;;28.54;53.85
14204;BME280;7185;51.854;6.622;2022-08-18T14:02:10;100982.47;;;28.75;52.47